Pagrindinis puslapis
METAR-TAF:

METAR-TAF

Oro uostai :

Landžou, Kinija

platuma: 36-02N, ilguma: 103-52E, Aukštis: 1518 m

Dabartinis oras

Ataskaita buvo paskelbta 37 minutes, ne 17:00 UTC
Vėjas 4 kt iš Šiaurės/Šiaurės Vakarų
Temperatūra 4°C
Drėgmė 87%
Slėgis 1021 hPa
Matomumas 10 km arba daugiau
nėra debesų žemiau 1500 m ir nėra kamuolinių lietaus debesų

METAR: ZLLL 201700Z 33002MPS CAVOK 04/02 Q1021 NOSIG

Laikas: 01:37 (17:37 UTC)

Prognozė

Ataskaita buvo paskelbta 8 valandos ir 37 minutes, ne 09:00 UTC
Prognozė galioja nuo 20 metu 12 UTC su 21 metu 12 UTC
Vėjas 6 kt iš Rytų/Šiaurės Rytų
Matomumas: 6000 m
Laikinai
nuo 21 metu 08 UTC su 21 metu 12 UTC
Mažai debesys ne aukštis 3300 ft, Liūtiniai kamuoliniai debesys.
Išsisklaidę debesys ne aukštis 4000 ft
lietus

TAF: ZLLL 200900Z 2012/2112 06003MPS 6000 NSC TX15/2108Z TN00/2023Z TEMPO 2108/2112 -SHRA FEW033CB SCT040

Orai ataskaitas ir orų prognozės (METAR, TAF).

turimą stotys yra geltonos ir raudonos taškus žemėlapyje.

Perkelti pele per norėdami pamatyti stoties vardą.

Tada spustelėkite, norėdami matyti oro stebėjimo ir prognozės.

Norėdami pakeisti žemėlapį: spustelėkite ant žalios mygtukų su juodo kryžiaus žemyn,; žalią mygtuką su brūkšneliu, jei norite nutolinti; arba žalių rodyklių gretimoms žemėlapius.


METAR-TAF: